createdAt,value
2023-04-17T00:01:12.402Z,13.30
2023-04-17T00:03:39.115Z,13.18
2023-04-17T00:06:06.412Z,13.10
2023-04-17T00:08:33.916Z,14.07
2023-04-17T00:11:08.032Z,13.45
2023-04-17T00:13:35.717Z,13.75
2023-04-17T00:16:02.364Z,13.70
2023-04-17T00:18:28.984Z,14.35
2023-04-17T00:20:56.513Z,14.45
2023-04-17T00:23:22.970Z,15.10
2023-04-17T00:25:49.496Z,14.80
2023-04-17T00:28:15.973Z,15.20
2023-04-17T00:30:42.407Z,14.70
2023-04-17T00:33:08.966Z,14.10
2023-04-17T00:35:35.406Z,13.65
2023-04-17T00:38:01.956Z,14.05
2023-04-17T00:40:28.423Z,12.80
2023-04-17T00:43:00.246Z,13.80
2023-04-17T00:45:26.753Z,13.75
2023-04-17T00:47:53.619Z,14.00
2023-04-17T00:50:20.100Z,12.90
2023-04-17T00:52:47.400Z,13.57
2023-04-17T00:55:14.523Z,13.50
2023-04-17T00:57:42.260Z,12.98
2023-04-17T01:00:10.301Z,13.38
2023-04-17T01:02:37.262Z,14.02
2023-04-17T01:05:04.047Z,13.50
2023-04-17T01:07:31.022Z,12.98
2023-04-17T01:09:57.580Z,12.95
2023-04-17T01:12:24.821Z,12.77
2023-04-17T01:14:52.620Z,13.05
2023-04-17T01:17:19.630Z,13.48
2023-04-17T01:19:48.840Z,12.05
2023-04-17T01:22:20.621Z,13.55
2023-04-17T01:24:50.511Z,12.45
2023-04-17T01:27:17.022Z,12.45
2023-04-17T01:29:45.370Z,12.40
2023-04-17T01:32:12.021Z,11.80
2023-04-17T01:34:38.578Z,11.73
2023-04-17T01:37:05.126Z,11.57
2023-04-17T01:39:31.659Z,11.18
2023-04-17T01:41:58.203Z,11.15
2023-04-17T01:44:24.813Z,11.15
2023-04-17T01:46:51.424Z,11.35
2023-04-17T01:49:17.956Z,10.10
2023-04-17T01:51:44.413Z,11.05
2023-04-17T01:54:10.998Z,11.43
2023-04-17T01:56:37.513Z,10.85
2023-04-17T01:59:04.130Z,11.05
2023-04-17T02:01:31.280Z,10.68
2023-04-17T02:03:58.246Z,11.65
2023-04-17T02:06:27.288Z,10.73
2023-04-17T02:08:53.782Z,11.40
2023-04-17T02:11:20.764Z,10.63
2023-04-17T02:13:50.599Z,10.35
2023-04-17T02:16:17.350Z,10.63
2023-04-17T02:18:43.883Z,10.23
2023-04-17T02:21:10.358Z,10.02
2023-04-17T02:23:36.862Z,10.50
2023-04-17T02:26:04.056Z,11.82
2023-04-17T02:28:30.682Z,12.18
2023-04-17T02:31:01.687Z,13.52
2023-04-17T02:33:29.613Z,13.77
2023-04-17T02:35:56.187Z,14.20
2023-04-17T02:38:30.304Z,13.18
2023-04-17T02:40:57.994Z,13.07
2023-04-17T02:43:25.193Z,12.55
2023-04-17T02:45:51.928Z,12.98
2023-04-17T02:48:18.547Z,13.23
2023-04-17T02:50:45.102Z,13.02
2023-04-17T02:53:17.654Z,12.25
2023-04-17T02:55:44.270Z,9.90
2023-04-17T02:58:11.344Z,11.55
2023-04-17T03:00:39.112Z,12.13
2023-04-17T03:03:07.810Z,11.68
2023-04-17T03:05:34.386Z,12.00
2023-04-17T03:08:00.880Z,12.00
2023-04-17T03:10:32.730Z,12.77
2023-04-17T03:12:59.267Z,12.52
2023-04-17T03:15:25.738Z,12.60
2023-04-17T03:17:52.403Z,12.65
2023-04-17T03:20:18.939Z,11.90
2023-04-17T03:22:45.478Z,12.45
2023-04-17T03:25:12.627Z,12.80
2023-04-17T03:27:52.322Z,13.02
2023-04-17T03:30:21.359Z,12.73
2023-04-17T03:32:50.241Z,12.70
2023-04-17T03:35:16.787Z,13.43
2023-04-17T03:37:44.599Z,14.65
2023-04-17T03:40:12.821Z,14.85
2023-04-17T03:42:39.336Z,14.85
2023-04-17T03:45:06.374Z,11.93
2023-04-17T03:47:33.714Z,17.65
2023-04-17T03:50:00.625Z,17.60
2023-04-17T03:52:31.072Z,17.85
2023-04-17T03:54:58.871Z,18.30
2023-04-17T03:57:26.296Z,20.17
2023-04-17T03:59:53.439Z,15.32
2023-04-17T04:02:20.701Z,20.42
2023-04-17T04:04:50.388Z,20.95
2023-04-17T04:07:17.254Z,22.10
2023-04-17T04:09:44.644Z,20.38
2023-04-17T04:12:11.349Z,20.77
2023-04-17T04:14:42.075Z,15.48
2023-04-17T04:17:09.666Z,21.02
2023-04-17T04:19:36.166Z,21.10
2023-04-17T04:22:06.252Z,21.23
2023-04-17T04:24:40.869Z,17.45
2023-04-17T04:27:07.713Z,21.70
2023-04-17T04:29:37.523Z,24.48
2023-04-17T04:32:09.653Z,22.25
2023-04-17T04:34:42.098Z,18.15
2023-04-17T04:37:08.690Z,24.10
2023-04-17T04:39:39.176Z,24.00
2023-04-17T04:42:09.918Z,24.80
2023-04-17T04:44:56.762Z,24.17
2023-04-17T04:47:26.717Z,23.80
2023-04-17T04:49:54.245Z,26.23
2023-04-17T04:52:21.943Z,25.50
2023-04-17T04:54:50.635Z,26.40
2023-04-17T04:57:17.237Z,25.27
2023-04-17T04:59:46.992Z,24.52
2023-04-17T05:02:39.551Z,23.80
2023-04-17T05:05:10.822Z,24.08
2023-04-17T05:07:37.307Z,18.88
2023-04-17T05:10:06.291Z,25.10
2023-04-17T05:12:36.315Z,26.25
2023-04-17T05:15:06.385Z,23.67
2023-04-17T05:17:33.073Z,25.60
2023-04-17T05:19:59.833Z,26.08
2023-04-17T05:22:27.586Z,25.65
2023-04-17T05:25:02.417Z,27.45
2023-04-17T05:27:28.925Z,26.70
2023-04-17T05:29:55.949Z,26.17
2023-04-17T05:32:22.488Z,26.02
2023-04-17T05:34:59.330Z,26.27
2023-04-17T05:37:27.636Z,26.13
2023-04-17T05:39:56.362Z,24.90
2023-04-17T05:42:22.884Z,25.17
2023-04-17T05:44:49.350Z,23.98
2023-04-17T05:47:15.876Z,23.20
2023-04-17T05:49:43.817Z,22.48
2023-04-17T05:52:10.401Z,22.40
2023-04-17T05:54:41.316Z,22.67
2023-04-17T05:57:08.872Z,19.35
2023-04-17T05:59:36.425Z,20.00
2023-04-17T06:02:03.176Z,19.42
2023-04-17T06:04:30.012Z,19.42
2023-04-17T06:06:57.769Z,19.35
2023-04-17T06:09:25.720Z,18.95
2023-04-17T06:11:52.345Z,20.05
2023-04-17T06:14:18.908Z,20.08
2023-04-17T06:16:46.280Z,19.88
2023-04-17T06:19:16.159Z,19.95
2023-04-17T06:21:44.512Z,20.13
2023-04-17T06:24:10.980Z,19.40
2023-04-17T06:26:43.410Z,21.75
2023-04-17T06:29:10.375Z,19.80
2023-04-17T06:31:37.659Z,20.85
2023-04-17T06:34:04.168Z,20.77
2023-04-17T06:36:36.480Z,20.10
2023-04-17T06:39:03.664Z,20.40
2023-04-17T06:41:30.579Z,19.30
2023-04-17T06:43:57.033Z,18.85
2023-04-17T06:46:23.571Z,20.42
2023-04-17T06:48:52.247Z,18.85
2023-04-17T06:51:20.969Z,19.00
2023-04-17T06:53:50.972Z,18.38
2023-04-17T06:56:17.446Z,17.42
2023-04-17T06:58:44.439Z,18.45
2023-04-17T07:01:14.540Z,18.00
2023-04-17T07:03:42.031Z,17.13
2023-04-17T07:06:08.843Z,16.83
2023-04-17T07:08:35.577Z,16.38
2023-04-17T07:11:02.569Z,16.88
2023-04-17T07:13:31.404Z,15.98
2023-04-17T07:15:58.419Z,14.77
2023-04-17T07:18:26.765Z,15.23
2023-04-17T07:20:53.248Z,16.23
2023-04-17T07:23:19.760Z,16.08
2023-04-17T07:25:46.238Z,17.00
2023-04-17T07:28:12.785Z,16.90
2023-04-17T07:30:39.205Z,16.38
2023-04-17T07:33:05.730Z,18.10
2023-04-17T07:35:32.250Z,16.90
2023-04-17T07:38:01.348Z,16.77
2023-04-17T07:40:28.423Z,17.50
2023-04-17T07:42:56.218Z,17.50
2023-04-17T07:45:23.594Z,17.38
2023-04-17T07:47:53.406Z,18.45
2023-04-17T07:50:20.072Z,16.48
2023-04-17T07:52:46.972Z,16.83
2023-04-17T07:55:13.537Z,16.58
2023-04-17T07:57:43.220Z,15.40
2023-04-17T08:00:11.130Z,15.45
2023-04-17T08:02:42.054Z,15.32
2023-04-17T08:05:09.425Z,15.10
2023-04-17T08:07:36.645Z,15.68
2023-04-17T08:10:04.382Z,15.55
2023-04-17T08:12:30.847Z,14.77
2023-04-17T08:14:57.388Z,15.43
2023-04-17T08:17:25.992Z,16.00
2023-04-17T08:19:57.412Z,15.35
2023-04-17T08:22:24.615Z,15.25
2023-04-17T08:24:54.910Z,15.38
2023-04-17T08:27:21.456Z,16.30
2023-04-17T08:29:47.938Z,17.55
2023-04-17T08:32:15.463Z,15.93
2023-04-17T08:34:43.568Z,16.50
2023-04-17T08:37:10.026Z,16.48
2023-04-17T08:39:36.496Z,16.73
2023-04-17T08:42:07.788Z,17.05
2023-04-17T08:44:34.455Z,17.52
2023-04-17T08:47:02.530Z,16.20
2023-04-17T08:49:29.618Z,16.52
2023-04-17T08:51:56.525Z,17.55
2023-04-17T08:54:23.052Z,17.40
2023-04-17T08:56:49.503Z,17.90
2023-04-17T08:59:17.886Z,17.98
2023-04-17T09:02:07.508Z,17.83
2023-04-17T09:04:43.981Z,17.55
2023-04-17T09:07:15.536Z,16.67
2023-04-17T09:09:53.677Z,16.50
2023-04-17T09:12:22.296Z,16.48
2023-04-17T09:14:48.934Z,15.70
2023-04-17T09:17:19.646Z,16.17
2023-04-17T09:20:24.717Z,15.90
2023-04-17T09:23:00.213Z,14.60
2023-04-17T09:25:28.042Z,13.93
2023-04-17T09:27:55.807Z,12.73
2023-04-17T09:30:24.682Z,13.30
2023-04-17T09:33:02.997Z,11.75
2023-04-17T09:35:29.497Z,12.75
2023-04-17T09:37:58.767Z,12.45
2023-04-17T09:40:26.461Z,12.48
2023-04-17T09:42:54.850Z,12.30
2023-04-17T09:45:22.327Z,12.02
2023-04-17T09:47:48.908Z,11.27
2023-04-17T09:50:22.004Z,10.07
2023-04-17T09:52:52.509Z,10.35
2023-04-17T09:55:21.569Z,11.23
2023-04-17T09:57:55.460Z,10.98
2023-04-17T10:00:23.834Z,10.90
2023-04-17T10:02:52.304Z,11.10
2023-04-17T10:05:24.283Z,10.73
2023-04-17T10:07:50.890Z,10.38
2023-04-17T10:10:30.228Z,10.85
2023-04-17T10:12:59.479Z,11.13
2023-04-17T10:15:26.297Z,10.93
2023-04-17T10:17:53.310Z,10.85
2023-04-17T10:20:20.130Z,11.13
2023-04-17T10:22:54.386Z,10.40
2023-04-17T10:25:25.265Z,9.88
2023-04-17T10:28:01.936Z,9.45
2023-04-17T10:30:55.431Z,9.93
2023-04-17T10:33:24.865Z,9.93
2023-04-17T10:35:51.759Z,10.60
2023-04-17T10:38:31.656Z,9.75
2023-04-17T10:41:01.164Z,9.88
2023-04-17T10:43:27.637Z,9.98
2023-04-17T10:46:00.143Z,8.23
2023-04-17T10:48:41.566Z,9.65
2023-04-17T10:51:23.285Z,9.82
2023-04-17T10:54:03.684Z,10.40
2023-04-17T10:56:39.622Z,8.88
2023-04-17T10:59:11.437Z,9.70
2023-04-17T11:01:40.541Z,9.13
2023-04-17T11:04:07.993Z,9.55
2023-04-17T11:06:39.821Z,8.93
2023-04-17T11:09:10.958Z,8.93
2023-04-17T11:11:44.214Z,8.93
2023-04-17T11:14:14.860Z,8.90
2023-04-17T11:16:42.999Z,8.10
2023-04-17T11:19:10.048Z,9.18
2023-04-17T11:21:41.990Z,9.52
2023-04-17T11:24:08.509Z,10.90
2023-04-17T11:26:44.717Z,10.18
2023-04-17T11:29:18.627Z,10.13
2023-04-17T11:31:45.604Z,8.93
2023-04-17T11:34:13.133Z,9.55
2023-04-17T11:36:39.630Z,9.23
2023-04-17T11:39:06.175Z,9.80
2023-04-17T11:41:39.426Z,8.77
2023-04-17T11:44:09.626Z,9.57
2023-04-17T11:46:36.745Z,9.50
2023-04-17T11:49:06.809Z,9.05
2023-04-17T11:51:33.283Z,9.23
2023-04-17T11:54:00.255Z,9.20
2023-04-17T11:56:31.035Z,8.95
2023-04-17T11:58:59.272Z,8.63
2023-04-17T12:01:26.893Z,7.82
2023-04-17T12:03:58.879Z,8.60
2023-04-17T12:06:37.079Z,8.23
2023-04-17T12:09:03.657Z,7.72
2023-04-17T12:11:32.707Z,7.55
2023-04-17T12:14:00.115Z,8.25
2023-04-17T12:16:27.808Z,7.97
2023-04-17T12:18:54.858Z,7.55
2023-04-17T12:21:21.950Z,7.80
2023-04-17T12:23:48.468Z,7.80
2023-04-17T12:26:14.909Z,7.65
2023-04-17T12:28:41.581Z,7.90
2023-04-17T12:31:08.089Z,7.07
2023-04-17T12:33:35.025Z,7.25
2023-04-17T12:36:02.950Z,8.07
2023-04-17T12:38:30.269Z,8.00
2023-04-17T12:41:00.115Z,7.80
2023-04-17T12:43:26.647Z,8.65
2023-04-17T12:45:53.234Z,8.05
2023-04-17T12:48:19.826Z,8.18
2023-04-17T12:50:46.257Z,7.72
2023-04-17T12:53:13.846Z,8.20
2023-04-17T12:55:41.644Z,8.73
2023-04-17T12:58:10.104Z,7.97
2023-04-17T13:00:37.234Z,7.43
2023-04-17T13:03:04.001Z,7.88
2023-04-17T13:05:31.114Z,8.05
2023-04-17T13:07:58.248Z,7.45
2023-04-17T13:10:25.169Z,7.38
2023-04-17T13:12:51.662Z,7.18
2023-04-17T13:15:18.575Z,8.10
2023-04-17T13:17:45.326Z,7.53
2023-04-17T13:20:12.767Z,7.57
2023-04-17T13:22:39.396Z,7.05
2023-04-17T13:25:06.342Z,7.05
2023-04-17T13:27:32.796Z,7.68
2023-04-17T13:29:59.249Z,7.38
2023-04-17T13:32:25.773Z,7.40
2023-04-17T13:34:52.272Z,7.45
2023-04-17T13:37:18.774Z,8.20
2023-04-17T13:39:45.204Z,7.63
2023-04-17T13:42:15.034Z,8.23
2023-04-17T13:44:41.470Z,7.45
2023-04-17T13:47:08.142Z,7.97
2023-04-17T13:49:34.652Z,7.75
2023-04-17T13:52:01.173Z,7.43
2023-04-17T13:54:27.779Z,7.45
2023-04-17T13:56:54.288Z,7.90
2023-04-17T13:59:20.781Z,7.28
2023-04-17T14:01:47.372Z,7.65
2023-04-17T14:04:14.201Z,7.28
2023-04-17T14:06:40.858Z,6.63
2023-04-17T14:09:07.480Z,7.93
2023-04-17T14:11:33.952Z,6.97
2023-04-17T14:14:00.468Z,6.32
2023-04-17T14:16:27.566Z,6.65
2023-04-17T14:18:54.089Z,6.25
2023-04-17T14:21:21.938Z,5.95
2023-04-17T14:23:51.323Z,6.60
2023-04-17T14:26:17.798Z,6.93
2023-04-17T14:28:44.325Z,6.63
2023-04-17T14:31:10.861Z,6.13
2023-04-17T14:33:37.353Z,6.13
2023-04-17T14:36:05.820Z,6.43
2023-04-17T14:38:32.563Z,6.78
2023-04-17T14:40:59.061Z,6.43
2023-04-17T14:43:25.626Z,6.78
2023-04-17T14:45:52.145Z,7.03
2023-04-17T14:48:20.004Z,7.40
2023-04-17T14:50:47.579Z,7.65
2023-04-17T14:53:14.029Z,7.18
2023-04-17T14:55:40.841Z,7.35
2023-04-17T14:58:07.487Z,7.53
2023-04-17T15:00:34.098Z,7.47
2023-04-17T15:03:00.809Z,7.55
2023-04-17T15:05:27.466Z,7.53
2023-04-17T15:07:53.945Z,7.93
2023-04-17T15:10:20.476Z,7.32
2023-04-17T15:12:46.957Z,7.85
2023-04-17T15:15:13.462Z,7.50
2023-04-17T15:17:40.532Z,7.60
2023-04-17T15:20:07.415Z,7.00
2023-04-17T15:22:33.997Z,7.93
2023-04-17T15:25:00.483Z,7.20
2023-04-17T15:27:27.039Z,7.47
2023-04-17T15:29:53.648Z,7.50
2023-04-17T15:32:20.175Z,8.27
2023-04-17T15:34:47.388Z,7.45
2023-04-17T15:37:13.868Z,8.23
2023-04-17T15:39:40.614Z,7.63
2023-04-17T15:42:09.338Z,7.30
2023-04-17T15:44:37.465Z,7.53
2023-04-17T15:47:04.724Z,7.07
2023-04-17T15:49:31.205Z,6.88
2023-04-17T15:51:57.715Z,7.20
2023-04-17T15:54:24.197Z,7.10
2023-04-17T15:56:50.724Z,6.93
2023-04-17T15:59:17.248Z,6.95
2023-04-17T16:01:46.703Z,7.30
2023-04-17T16:04:13.577Z,7.60
2023-04-17T16:06:40.164Z,7.72
2023-04-17T16:09:06.726Z,7.82
2023-04-17T16:11:33.194Z,7.50
2023-04-17T16:13:59.643Z,7.80
2023-04-17T16:16:29.273Z,8.18
2023-04-17T16:18:56.618Z,8.57
2023-04-17T16:21:23.168Z,8.13
2023-04-17T16:23:49.616Z,8.20
2023-04-17T16:26:16.136Z,9.43
2023-04-17T16:28:43.223Z,8.38
2023-04-17T16:31:11.078Z,9.82
2023-04-17T16:33:39.669Z,9.52
2023-04-17T16:36:06.215Z,9.07
2023-04-17T16:38:32.739Z,9.93
2023-04-17T16:41:01.790Z,9.80
2023-04-17T16:43:30.256Z,10.18
2023-04-17T16:45:58.384Z,11.43
2023-04-17T16:48:25.116Z,11.57
2023-04-17T16:50:51.690Z,11.43
2023-04-17T16:53:18.291Z,10.85
2023-04-17T16:55:44.763Z,11.50
2023-04-17T16:58:11.237Z,10.95
2023-04-17T17:00:37.834Z,10.70
2023-04-17T17:03:04.408Z,10.63
2023-04-17T17:05:30.917Z,10.77
2023-04-17T17:07:57.374Z,10.68
2023-04-17T17:10:23.861Z,11.15
2023-04-17T17:12:50.739Z,11.13
2023-04-17T17:15:17.956Z,10.95
2023-04-17T17:17:45.270Z,10.57
2023-04-17T17:20:11.973Z,11.50
2023-04-17T17:22:38.468Z,11.73
2023-04-17T17:25:05.515Z,11.77
2023-04-17T17:27:31.980Z,11.55
2023-04-17T17:30:00.382Z,10.50
2023-04-17T17:32:27.169Z,11.02
2023-04-17T17:34:53.703Z,10.07
2023-04-17T17:37:20.578Z,9.70
2023-04-17T17:39:47.087Z,9.85
2023-04-17T17:42:13.567Z,9.30
2023-04-17T17:44:40.039Z,8.98
2023-04-17T17:47:08.149Z,10.15
2023-04-17T17:49:34.757Z,9.50
2023-04-17T17:52:01.220Z,10.50
2023-04-17T17:54:27.708Z,10.98
2023-04-17T17:56:54.196Z,11.20
2023-04-17T17:59:21.435Z,11.18
2023-04-17T18:01:47.931Z,11.68
2023-04-17T18:04:14.797Z,11.73
2023-04-17T18:06:41.645Z,10.95
2023-04-17T18:09:08.103Z,10.80
2023-04-17T18:11:34.593Z,11.60
2023-04-17T18:14:01.124Z,13.27
2023-04-17T18:16:31.557Z,14.65
2023-04-17T18:18:59.804Z,15.77
2023-04-17T18:21:27.157Z,15.55
2023-04-17T18:23:53.743Z,16.63
2023-04-17T18:26:20.195Z,16.45
2023-04-17T18:28:46.819Z,16.27
2023-04-17T18:31:13.416Z,17.52
2023-04-17T18:33:40.063Z,16.85
2023-04-17T18:36:07.134Z,17.27
2023-04-17T18:38:34.737Z,17.50
2023-04-17T18:41:01.576Z,17.67
2023-04-17T18:43:28.577Z,17.55
2023-04-17T18:45:55.154Z,17.85
2023-04-17T18:48:21.672Z,17.27
2023-04-17T18:50:48.472Z,18.88
2023-04-17T18:53:15.039Z,17.65
2023-04-17T18:55:41.537Z,19.35
2023-04-17T18:58:08.172Z,19.08
2023-04-17T19:00:36.255Z,18.40
2023-04-17T19:03:03.347Z,19.83
2023-04-17T19:05:29.984Z,19.80
2023-04-17T19:07:56.480Z,19.38
2023-04-17T19:10:24.577Z,20.95
2023-04-17T19:12:51.120Z,20.63
2023-04-17T19:15:17.638Z,20.58
2023-04-17T19:17:44.212Z,20.85
2023-04-17T19:20:10.744Z,21.55
2023-04-17T19:22:37.262Z,20.90
2023-04-17T19:25:03.726Z,20.77
2023-04-17T19:27:30.401Z,20.08
2023-04-17T19:29:56.940Z,19.33
2023-04-17T19:32:23.698Z,18.17
2023-04-17T19:34:50.380Z,17.70
2023-04-17T19:37:16.876Z,17.05
2023-04-17T19:39:43.341Z,16.33
2023-04-17T19:42:09.845Z,15.68
2023-04-17T19:44:36.291Z,15.90
2023-04-17T19:47:02.832Z,15.10
2023-04-17T19:49:29.423Z,15.18
2023-04-17T19:51:55.990Z,15.18
2023-04-17T19:54:22.417Z,15.30
2023-04-17T19:56:48.876Z,15.23
2023-04-17T19:59:15.630Z,15.13
2023-04-17T20:01:43.828Z,13.90
2023-04-17T20:04:10.986Z,15.38
2023-04-17T20:06:37.708Z,15.32
2023-04-17T20:09:04.755Z,15.68
2023-04-17T20:11:31.280Z,16.50
2023-04-17T20:13:57.786Z,16.20
2023-04-17T20:16:24.584Z,16.33
2023-04-17T20:18:56.416Z,17.73
2023-04-17T20:21:23.256Z,16.63
2023-04-17T20:23:50.034Z,17.50
2023-04-17T20:26:16.705Z,17.38
2023-04-17T20:28:43.261Z,18.02
2023-04-17T20:31:09.819Z,18.08
2023-04-17T20:33:36.458Z,18.67
2023-04-17T20:36:03.207Z,18.45
2023-04-17T20:38:29.750Z,18.55
2023-04-17T20:40:56.268Z,19.13
2023-04-17T20:43:22.752Z,19.05
2023-04-17T20:45:49.624Z,18.65
2023-04-17T20:48:16.601Z,18.65
2023-04-17T20:50:43.199Z,19.08
2023-04-17T20:53:09.693Z,20.40
2023-04-17T20:55:37.875Z,19.75
2023-04-17T20:58:04.419Z,21.13
2023-04-17T21:00:30.930Z,19.55
2023-04-17T21:02:57.629Z,19.48
2023-04-17T21:05:24.433Z,20.00
2023-04-17T21:07:51.647Z,21.40
2023-04-17T21:10:19.806Z,21.02
2023-04-17T21:12:46.604Z,20.83
2023-04-17T21:15:13.091Z,21.13
2023-04-17T21:17:39.677Z,20.55
2023-04-17T21:20:06.794Z,20.65
2023-04-17T21:22:33.405Z,20.95
2023-04-17T21:24:59.893Z,21.42
2023-04-17T21:27:26.547Z,21.80
2023-04-17T21:29:53.019Z,21.77
2023-04-17T21:32:19.485Z,22.77
2023-04-17T21:34:46.055Z,23.42
2023-04-17T21:37:12.612Z,23.50
2023-04-17T21:39:39.155Z,23.75
2023-04-17T21:42:05.732Z,25.48
2023-04-17T21:44:32.326Z,24.13
2023-04-17T21:46:58.974Z,24.80
2023-04-17T21:49:25.541Z,24.13
2023-04-17T21:51:52.001Z,25.45
2023-04-17T21:54:18.457Z,26.58
2023-04-17T21:56:45.311Z,27.38
2023-04-17T21:59:11.764Z,26.58
2023-04-17T22:01:38.477Z,28.48
2023-04-17T22:04:05.177Z,27.55
2023-04-17T22:06:35.972Z,27.33
2023-04-17T22:09:03.991Z,27.02
2023-04-17T22:11:30.456Z,28.42
2023-04-17T22:13:57.004Z,29.55
2023-04-17T22:16:23.484Z,27.80
2023-04-17T22:18:50.187Z,28.40
2023-04-17T22:21:16.623Z,27.17
2023-04-17T22:23:43.117Z,26.60
2023-04-17T22:26:09.599Z,27.20
2023-04-17T22:28:36.332Z,27.02
2023-04-17T22:31:02.804Z,25.88
2023-04-17T22:33:29.323Z,26.13
2023-04-17T22:35:55.824Z,26.63
2023-04-17T22:38:22.307Z,25.95
2023-04-17T22:40:48.879Z,25.48
2023-04-17T22:43:15.454Z,24.95
2023-04-17T22:45:41.985Z,24.00
2023-04-17T22:48:08.881Z,25.30
2023-04-17T22:50:35.413Z,23.80
2023-04-17T22:53:01.888Z,24.00
2023-04-17T22:55:28.426Z,24.27
2023-04-17T22:57:54.949Z,24.45
2023-04-17T23:00:21.418Z,24.23
2023-04-17T23:02:48.273Z,24.02
2023-04-17T23:05:14.891Z,24.55
2023-04-17T23:07:41.509Z,24.52
2023-04-17T23:10:08.386Z,23.02
2023-04-17T23:12:34.846Z,23.20
2023-04-17T23:15:01.380Z,22.38
2023-04-17T23:17:27.999Z,22.02
2023-04-17T23:19:54.609Z,22.42
2023-04-17T23:22:21.448Z,22.25
2023-04-17T23:24:47.964Z,21.60
2023-04-17T23:27:14.565Z,19.95
2023-04-17T23:29:41.118Z,18.90
2023-04-17T23:32:07.757Z,19.85
2023-04-17T23:34:34.248Z,18.70
2023-04-17T23:37:02.513Z,19.15
2023-04-17T23:39:29.256Z,18.23
2023-04-17T23:41:55.742Z,17.42
2023-04-17T23:44:22.305Z,16.63
2023-04-17T23:46:48.924Z,16.98
2023-04-17T23:49:15.404Z,17.20
2023-04-17T23:51:42.045Z,16.77
2023-04-17T23:54:08.559Z,17.58
2023-04-17T23:56:35.001Z,17.25
2023-04-17T23:59:01.425Z,17.65
